createdAt,value
2017-12-26T00:00:53.431Z,0
2017-12-26T00:01:54.088Z,0
2017-12-26T00:02:54.746Z,0
2017-12-26T00:03:55.402Z,0
2017-12-26T00:04:56.062Z,0
2017-12-26T00:05:56.718Z,0
2017-12-26T00:06:57.378Z,0
2017-12-26T00:07:58.067Z,0
2017-12-26T00:08:58.723Z,0
2017-12-26T00:09:59.380Z,0
2017-12-26T00:11:00.038Z,0
2017-12-26T00:12:00.696Z,0
2017-12-26T00:13:01.353Z,0
2017-12-26T00:14:02.011Z,0
2017-12-26T00:15:02.670Z,0
2017-12-26T00:16:03.328Z,0
2017-12-26T00:17:03.986Z,0
2017-12-26T00:18:04.679Z,0
2017-12-26T00:19:05.339Z,0
2017-12-26T00:20:05.998Z,0
2017-12-26T00:21:06.656Z,0
2017-12-26T00:22:07.314Z,0
2017-12-26T00:23:07.973Z,0
2017-12-26T00:24:08.632Z,0
2017-12-26T00:25:09.290Z,0
2017-12-26T00:26:09.948Z,0
2017-12-26T00:27:10.606Z,0
2017-12-26T00:28:11.264Z,0
2017-12-26T00:29:11.928Z,0
2017-12-26T00:30:12.579Z,0
2017-12-26T00:31:13.238Z,0
2017-12-26T00:32:13.901Z,0
2017-12-26T00:33:14.554Z,0
2017-12-26T00:34:15.247Z,0
2017-12-26T00:35:15.906Z,0
2017-12-26T00:36:16.566Z,0
2017-12-26T00:37:17.225Z,0
2017-12-26T00:38:17.918Z,0
2017-12-26T00:39:18.574Z,0
2017-12-26T00:40:19.229Z,0
2017-12-26T00:41:19.888Z,0
2017-12-26T00:42:20.544Z,0
2017-12-26T00:43:21.201Z,0
2017-12-26T00:44:21.856Z,0
2017-12-26T00:45:22.512Z,0
2017-12-26T00:46:23.169Z,0
2017-12-26T00:47:23.830Z,0
2017-12-26T00:48:24.487Z,0
2017-12-26T00:49:25.144Z,0
2017-12-26T00:50:25.804Z,0
2017-12-26T00:51:26.460Z,0
2017-12-26T00:52:27.159Z,0
2017-12-26T00:53:27.810Z,0
2017-12-26T00:54:28.467Z,0
2017-12-26T00:55:29.126Z,0
2017-12-26T00:56:29.782Z,0
2017-12-26T00:57:30.439Z,0
2017-12-26T00:58:31.098Z,0
2017-12-26T00:59:31.754Z,0
2017-12-26T01:00:32.412Z,0
2017-12-26T01:01:33.070Z,0
2017-12-26T01:02:33.728Z,0
2017-12-26T01:03:34.426Z,0
2017-12-26T01:04:35.040Z,0
2017-12-26T01:05:35.697Z,0
2017-12-26T01:06:36.355Z,0
2017-12-26T01:07:37.011Z,0
2017-12-26T01:08:37.668Z,0
2017-12-26T01:09:38.328Z,0
2017-12-26T01:10:38.985Z,0
2017-12-26T01:11:39.641Z,0
2017-12-26T01:12:40.296Z,0
2017-12-26T01:13:40.957Z,0
2017-12-26T01:14:41.648Z,0
2017-12-26T01:15:42.307Z,0
2017-12-26T01:16:42.966Z,0
2017-12-26T01:17:43.624Z,0
2017-12-26T01:18:44.285Z,0
2017-12-26T01:19:44.942Z,0
2017-12-26T01:20:45.601Z,0
2017-12-26T01:21:46.261Z,0
2017-12-26T01:22:46.918Z,0
2017-12-26T01:23:47.574Z,0
2017-12-26T01:24:48.232Z,0
2017-12-26T01:25:48.891Z,0
2017-12-26T01:26:49.550Z,0
2017-12-26T01:27:50.208Z,0
2017-12-26T01:28:50.869Z,0
2017-12-26T01:29:51.527Z,0
2017-12-26T01:30:52.184Z,0
2017-12-26T01:31:52.844Z,0
2017-12-26T01:32:53.497Z,0
2017-12-26T01:33:54.156Z,0
2017-12-26T01:34:54.813Z,0
2017-12-26T01:35:55.471Z,0
2017-12-26T01:36:56.130Z,0
2017-12-26T01:37:56.823Z,0
2017-12-26T01:38:57.483Z,0
2017-12-26T01:39:58.143Z,0
2017-12-26T01:40:58.799Z,0
2017-12-26T01:41:59.458Z,0
2017-12-26T01:43:00.117Z,0
2017-12-26T01:44:00.776Z,0
2017-12-26T01:45:01.434Z,0
2017-12-26T01:46:02.094Z,0
2017-12-26T01:47:02.751Z,0
2017-12-26T01:48:03.409Z,0
2017-12-26T01:49:04.068Z,0
2017-12-26T01:50:04.724Z,0
2017-12-26T01:51:05.383Z,0
2017-12-26T01:52:06.043Z,0
2017-12-26T01:53:06.744Z,0
2017-12-26T01:54:07.451Z,0
2017-12-26T01:55:08.105Z,0
2017-12-26T01:56:08.762Z,0
2017-12-26T01:57:09.419Z,0
2017-12-26T01:58:10.075Z,0
2017-12-26T01:59:10.736Z,0
2017-12-26T02:00:11.398Z,0
2017-12-26T02:01:12.049Z,0
2017-12-26T02:02:12.708Z,0
2017-12-26T02:03:13.365Z,0
2017-12-26T02:04:14.026Z,0
2017-12-26T02:05:14.682Z,0
2017-12-26T02:06:15.378Z,0
2017-12-26T02:07:16.070Z,0
2017-12-26T02:08:16.728Z,0
2017-12-26T02:09:17.387Z,0
2017-12-26T02:10:18.044Z,0
2017-12-26T02:11:18.701Z,0
2017-12-26T02:12:19.360Z,0
2017-12-26T02:13:20.019Z,0
2017-12-26T02:14:20.677Z,0
2017-12-26T02:15:21.334Z,0
2017-12-26T02:16:21.998Z,0
2017-12-26T02:17:22.652Z,0
2017-12-26T02:18:23.309Z,0
2017-12-26T02:19:23.970Z,0
2017-12-26T02:20:24.664Z,0
2017-12-26T02:21:25.325Z,0
2017-12-26T02:22:26.013Z,0
2017-12-26T02:23:26.670Z,0
2017-12-26T02:24:27.327Z,0
2017-12-26T02:25:27.983Z,0
2017-12-26T02:26:28.641Z,0
2017-12-26T02:27:29.298Z,0
2017-12-26T02:28:29.956Z,0
2017-12-26T02:29:30.613Z,0
2017-12-26T02:30:31.271Z,0
2017-12-26T02:31:31.927Z,0
2017-12-26T02:32:32.584Z,0
2017-12-26T02:33:33.249Z,0
2017-12-26T02:34:33.900Z,0
2017-12-26T02:35:34.557Z,0
2017-12-26T02:36:35.216Z,0
2017-12-26T02:37:35.873Z,0
2017-12-26T02:38:36.531Z,0
2017-12-26T02:39:37.188Z,0
2017-12-26T02:40:37.895Z,0
2017-12-26T02:41:38.552Z,0
2017-12-26T02:42:39.210Z,0
2017-12-26T02:43:39.868Z,0
2017-12-26T02:44:40.525Z,0
2017-12-26T02:45:41.183Z,0
2017-12-26T02:46:41.841Z,0
2017-12-26T02:47:42.500Z,0
2017-12-26T02:48:43.157Z,0
2017-12-26T02:49:43.817Z,0
2017-12-26T02:50:44.510Z,0
2017-12-26T02:51:45.168Z,0
2017-12-26T02:52:45.825Z,0
2017-12-26T02:53:46.483Z,0
2017-12-26T02:54:47.138Z,0
2017-12-26T02:55:47.797Z,0
2017-12-26T02:56:48.456Z,0
2017-12-26T02:57:49.116Z,0
2017-12-26T02:58:49.778Z,0
2017-12-26T02:59:50.433Z,0
2017-12-26T03:00:51.394Z,0
2017-12-26T03:01:52.048Z,0
2017-12-26T03:02:52.706Z,0
2017-12-26T03:03:53.365Z,0
2017-12-26T03:04:54.023Z,0
2017-12-26T03:05:54.718Z,0
2017-12-26T03:06:55.378Z,0
2017-12-26T03:07:56.037Z,0
2017-12-26T03:08:56.700Z,0
2017-12-26T03:09:57.355Z,0
2017-12-26T03:10:58.105Z,0
2017-12-26T03:11:58.758Z,0
2017-12-26T03:12:59.415Z,0
2017-12-26T03:14:00.074Z,0
2017-12-26T03:15:00.751Z,0
2017-12-26T03:16:01.440Z,0
2017-12-26T03:17:02.098Z,0
2017-12-26T03:18:02.755Z,0
2017-12-26T03:19:03.412Z,0
2017-12-26T03:20:04.068Z,0
2017-12-26T03:21:04.732Z,0
2017-12-26T03:22:05.382Z,0
2017-12-26T03:23:06.041Z,0
2017-12-26T03:24:06.700Z,0
2017-12-26T03:25:07.358Z,0
2017-12-26T03:26:08.067Z,0
2017-12-26T03:27:08.724Z,0
2017-12-26T03:28:09.382Z,0
2017-12-26T03:29:10.040Z,0
2017-12-26T03:30:10.699Z,0
2017-12-26T03:31:11.392Z,0
2017-12-26T03:32:12.049Z,0
2017-12-26T03:33:12.708Z,0
2017-12-26T03:34:13.368Z,0
2017-12-26T03:35:14.027Z,0
2017-12-26T03:36:14.684Z,0
2017-12-26T03:37:15.344Z,0
2017-12-26T03:38:16.003Z,0
2017-12-26T03:39:16.661Z,0
2017-12-26T03:40:17.319Z,0
2017-12-26T03:41:17.976Z,0
2017-12-26T03:42:18.636Z,0
2017-12-26T03:43:19.294Z,0
2017-12-26T03:44:19.953Z,0
2017-12-26T03:45:20.611Z,0
2017-12-26T03:46:21.309Z,0
2017-12-26T03:47:21.966Z,0
2017-12-26T03:48:22.703Z,0
2017-12-26T03:49:23.315Z,0
2017-12-26T03:50:23.972Z,0
2017-12-26T03:51:24.629Z,0
2017-12-26T03:52:25.284Z,0
2017-12-26T03:53:25.941Z,0
2017-12-26T03:54:26.598Z,0
2017-12-26T03:55:27.257Z,0
2017-12-26T03:56:27.914Z,0
2017-12-26T03:57:28.573Z,0
2017-12-26T03:58:29.231Z,0
2017-12-26T03:59:29.888Z,0
2017-12-26T04:00:30.546Z,0
2017-12-26T04:01:31.203Z,0
2017-12-26T04:02:31.862Z,0
2017-12-26T04:03:32.520Z,0
2017-12-26T04:04:33.182Z,0
2017-12-26T04:05:33.836Z,0
2017-12-26T04:06:34.495Z,0
2017-12-26T04:07:35.153Z,0
2017-12-26T04:08:35.811Z,0
2017-12-26T04:09:36.469Z,0
2017-12-26T04:10:37.128Z,0
2017-12-26T04:11:37.785Z,0
2017-12-26T04:12:38.443Z,0
2017-12-26T04:13:39.101Z,0
2017-12-26T04:14:39.759Z,0
2017-12-26T04:15:40.424Z,0
2017-12-26T04:16:41.076Z,0
2017-12-26T04:17:41.734Z,0
2017-12-26T04:18:42.391Z,0
2017-12-26T04:19:43.050Z,0
2017-12-26T04:20:43.708Z,0
2017-12-26T04:21:44.401Z,0
2017-12-26T04:22:45.059Z,0
2017-12-26T04:23:45.716Z,0
2017-12-26T04:24:46.373Z,0
2017-12-26T04:25:47.032Z,0
2017-12-26T04:26:47.689Z,0
2017-12-26T04:27:48.348Z,0
2017-12-26T04:28:49.007Z,0
2017-12-26T04:29:49.664Z,0
2017-12-26T04:30:50.324Z,0
2017-12-26T04:31:50.980Z,0
2017-12-26T04:32:51.639Z,0
2017-12-26T04:33:52.298Z,0
2017-12-26T04:34:52.956Z,0
2017-12-26T04:35:53.614Z,0
2017-12-26T04:36:54.524Z,0
2017-12-26T04:37:55.181Z,0
2017-12-26T04:38:55.876Z,0
2017-12-26T04:39:56.533Z,0
2017-12-26T04:40:57.189Z,0
2017-12-26T04:41:57.847Z,0
2017-12-26T04:42:58.507Z,0
2017-12-26T04:43:59.162Z,0
2017-12-26T04:44:59.819Z,0
2017-12-26T04:46:00.476Z,0
2017-12-26T04:47:01.134Z,0
2017-12-26T04:48:01.791Z,0
2017-12-26T04:49:02.448Z,0
2017-12-26T04:50:03.107Z,0
2017-12-26T04:51:03.766Z,0
2017-12-26T04:52:04.422Z,0
2017-12-26T04:53:05.082Z,0
2017-12-26T04:54:05.739Z,0
2017-12-26T04:55:06.397Z,0
2017-12-26T04:56:07.055Z,0
2017-12-26T04:57:07.713Z,0
2017-12-26T04:58:08.372Z,0
2017-12-26T04:59:09.031Z,0
2017-12-26T05:00:09.688Z,0
2017-12-26T05:01:10.347Z,0
2017-12-26T05:02:11.033Z,0
2017-12-26T05:03:11.700Z,0
2017-12-26T05:04:12.395Z,0
2017-12-26T05:05:13.054Z,0
2017-12-26T05:06:13.749Z,0
2017-12-26T05:07:14.409Z,0
2017-12-26T05:08:15.068Z,0
2017-12-26T05:09:15.727Z,0
2017-12-26T05:10:16.388Z,0
2017-12-26T05:11:17.083Z,0
2017-12-26T05:12:17.744Z,0
2017-12-26T05:13:18.404Z,0
2017-12-26T05:14:19.064Z,0
2017-12-26T05:15:19.723Z,0
2017-12-26T05:16:20.382Z,0
2017-12-26T05:17:21.043Z,0
2017-12-26T05:18:21.702Z,0
2017-12-26T05:19:22.362Z,0
2017-12-26T05:20:23.021Z,0
2017-12-26T05:21:23.682Z,0
2017-12-26T05:22:24.339Z,0
2017-12-26T05:23:24.998Z,0
2017-12-26T05:24:25.659Z,0
2017-12-26T05:25:26.317Z,0
2017-12-26T05:26:26.976Z,0
2017-12-26T05:27:27.637Z,0
2017-12-26T05:28:28.297Z,0
2017-12-26T05:29:28.994Z,0
2017-12-26T05:30:29.653Z,0
2017-12-26T05:31:30.313Z,0
2017-12-26T05:32:30.972Z,0
2017-12-26T05:33:31.632Z,0
2017-12-26T05:34:32.292Z,0
2017-12-26T05:35:32.952Z,0
2017-12-26T05:36:33.610Z,0
2017-12-26T05:37:34.271Z,0
2017-12-26T05:38:34.931Z,0
2017-12-26T05:39:35.591Z,0
2017-12-26T05:40:36.251Z,0
2017-12-26T05:41:36.910Z,0
2017-12-26T05:42:37.567Z,0
2017-12-26T05:43:38.263Z,0
2017-12-26T05:44:38.921Z,0
2017-12-26T05:45:39.580Z,0
2017-12-26T05:46:40.237Z,0
2017-12-26T05:47:40.897Z,0
2017-12-26T05:48:41.555Z,0
2017-12-26T05:49:42.213Z,0
2017-12-26T05:50:42.871Z,0
2017-12-26T05:51:43.527Z,0
2017-12-26T05:52:44.186Z,0
2017-12-26T05:53:44.845Z,0
2017-12-26T05:54:45.503Z,0
2017-12-26T05:55:46.164Z,0
2017-12-26T05:56:46.822Z,0
2017-12-26T05:57:47.518Z,0
2017-12-26T05:58:48.179Z,0
2017-12-26T05:59:48.872Z,0
2017-12-26T06:00:49.531Z,0
2017-12-26T06:01:50.191Z,0
2017-12-26T06:02:50.849Z,0
2017-12-26T06:03:51.508Z,0
2017-12-26T06:04:52.167Z,0
2017-12-26T06:05:52.828Z,0
2017-12-26T06:06:53.487Z,0
2017-12-26T06:07:54.146Z,0
2017-12-26T06:08:54.807Z,0
2017-12-26T06:09:55.465Z,0
2017-12-26T06:10:56.125Z,0
2017-12-26T06:11:56.785Z,0
2017-12-26T06:12:57.444Z,0
2017-12-26T06:13:58.104Z,0
2017-12-26T06:14:58.767Z,0
2017-12-26T06:15:59.423Z,0
2017-12-26T06:17:00.085Z,0
2017-12-26T06:18:00.743Z,0
2017-12-26T06:19:01.419Z,0
2017-12-26T06:20:02.063Z,0
2017-12-26T06:21:02.722Z,0
2017-12-26T06:22:03.384Z,0
2017-12-26T06:23:04.042Z,0
2017-12-26T06:24:04.701Z,0
2017-12-26T06:25:05.362Z,0
2017-12-26T06:26:06.058Z,0
2017-12-26T06:27:06.719Z,0
2017-12-26T06:28:07.380Z,0
2017-12-26T06:29:08.074Z,0
2017-12-26T06:30:08.731Z,0
2017-12-26T06:31:09.426Z,0
2017-12-26T06:32:10.084Z,0
2017-12-26T06:33:10.744Z,0
2017-12-26T06:34:11.404Z,0
2017-12-26T06:35:12.061Z,0
2017-12-26T06:36:12.722Z,0
2017-12-26T06:37:13.380Z,0
2017-12-26T06:38:14.090Z,0
2017-12-26T06:39:14.748Z,0
2017-12-26T06:40:15.406Z,0
2017-12-26T06:41:16.066Z,0
2017-12-26T06:42:16.725Z,0
2017-12-26T06:43:17.386Z,0
2017-12-26T06:44:18.045Z,0
2017-12-26T06:45:18.704Z,0
2017-12-26T06:46:19.364Z,0
2017-12-26T06:47:20.026Z,0
2017-12-26T06:48:20.719Z,0
2017-12-26T06:49:21.379Z,0
2017-12-26T06:50:22.038Z,0
2017-12-26T06:51:22.696Z,0
2017-12-26T06:52:23.356Z,0
2017-12-26T06:53:24.015Z,0
2017-12-26T06:54:24.674Z,0
2017-12-26T06:55:25.331Z,0
2017-12-26T06:56:26.028Z,0
2017-12-26T06:57:26.692Z,0
2017-12-26T06:58:27.351Z,0
2017-12-26T06:59:28.011Z,0
2017-12-26T07:00:28.670Z,0
2017-12-26T07:01:29.330Z,0
2017-12-26T07:02:29.990Z,0
2017-12-26T07:03:30.650Z,0
2017-12-26T07:04:31.310Z,0
2017-12-26T07:05:32.007Z,0
2017-12-26T07:06:32.668Z,0
2017-12-26T07:07:33.330Z,0
2017-12-26T07:08:33.990Z,0
2017-12-26T07:09:34.650Z,0
2017-12-26T07:10:35.311Z,0
2017-12-26T07:11:35.971Z,0
2017-12-26T07:12:36.631Z,0
2017-12-26T07:13:37.349Z,0
2017-12-26T07:14:37.951Z,0
2017-12-26T07:15:38.610Z,0
2017-12-26T07:16:39.270Z,0
2017-12-26T07:17:39.932Z,0
2017-12-26T07:18:40.592Z,0
2017-12-26T07:19:41.252Z,0
2017-12-26T07:20:41.913Z,0
2017-12-26T07:21:42.573Z,0
2017-12-26T07:22:43.270Z,0
2017-12-26T07:23:43.931Z,5
2017-12-26T07:24:44.591Z,5
2017-12-26T07:25:45.253Z,5
2017-12-26T07:26:45.914Z,5
2017-12-26T07:27:46.574Z,5
2017-12-26T07:28:47.236Z,5
2017-12-26T07:29:47.898Z,5
2017-12-26T07:30:48.560Z,5
2017-12-26T07:31:49.221Z,5
2017-12-26T07:32:49.880Z,5
2017-12-26T07:33:50.544Z,5
2017-12-26T07:34:51.204Z,5
2017-12-26T07:35:51.865Z,5
2017-12-26T07:36:52.524Z,5
2017-12-26T07:37:53.189Z,5
2017-12-26T07:38:53.882Z,5
2017-12-26T07:39:54.549Z,11
2017-12-26T07:40:55.205Z,11
2017-12-26T07:41:55.868Z,11
2017-12-26T07:42:56.528Z,11
2017-12-26T07:43:57.202Z,11
2017-12-26T07:44:57.849Z,11
2017-12-26T07:45:58.511Z,11
2017-12-26T07:46:59.173Z,11
2017-12-26T07:47:59.841Z,11
2017-12-26T07:49:00.533Z,11
2017-12-26T07:50:01.194Z,11
2017-12-26T07:51:01.854Z,11
2017-12-26T07:52:02.519Z,11
2017-12-26T07:53:03.183Z,16
2017-12-26T07:54:03.845Z,16
2017-12-26T07:55:04.504Z,16
2017-12-26T07:56:05.164Z,16
2017-12-26T07:57:05.854Z,16
2017-12-26T07:58:06.488Z,16
2017-12-26T07:59:07.148Z,16
2017-12-26T08:00:07.811Z,16
2017-12-26T08:01:08.475Z,16
2017-12-26T08:02:09.134Z,16
2017-12-26T08:03:09.798Z,16
2017-12-26T08:04:10.460Z,16
2017-12-26T08:05:11.120Z,22
2017-12-26T08:06:11.781Z,22
2017-12-26T08:07:12.441Z,22
2017-12-26T08:08:13.102Z,22
2017-12-26T08:09:13.763Z,22
2017-12-26T08:10:14.424Z,22
2017-12-26T08:11:15.086Z,22
2017-12-26T08:12:15.750Z,22
2017-12-26T08:13:16.432Z,28
2017-12-26T08:14:17.077Z,28
2017-12-26T08:15:17.739Z,28
2017-12-26T08:16:18.401Z,28
2017-12-26T08:17:19.065Z,28
2017-12-26T08:18:19.730Z,28
2017-12-26T08:19:20.393Z,28
2017-12-26T08:20:21.055Z,28
2017-12-26T08:21:21.717Z,28
2017-12-26T08:22:22.380Z,28
2017-12-26T08:23:23.043Z,28
2017-12-26T08:24:23.711Z,33
2017-12-26T08:25:24.371Z,33
2017-12-26T08:26:25.032Z,33
2017-12-26T08:27:25.696Z,33
2017-12-26T08:28:26.358Z,33
2017-12-26T08:29:27.021Z,33
2017-12-26T08:30:27.684Z,33
2017-12-26T08:31:28.348Z,33
2017-12-26T08:32:29.010Z,33
2017-12-26T08:33:29.672Z,33
2017-12-26T08:34:30.333Z,33
2017-12-26T08:35:30.999Z,33
2017-12-26T08:36:31.661Z,33
2017-12-26T08:37:32.325Z,33
2017-12-26T08:38:33.026Z,33
2017-12-26T08:39:33.690Z,33
2017-12-26T08:40:34.353Z,39
2017-12-26T08:41:35.016Z,39
2017-12-26T08:42:35.679Z,39
2017-12-26T08:43:36.343Z,39
2017-12-26T08:44:37.004Z,39
2017-12-26T08:45:37.667Z,39
2017-12-26T08:46:38.329Z,39
2017-12-26T08:47:38.992Z,39
2017-12-26T08:48:39.655Z,39
2017-12-26T08:49:40.326Z,39
2017-12-26T08:50:40.984Z,39
2017-12-26T08:51:41.647Z,39
2017-12-26T08:52:42.309Z,39
2017-12-26T08:53:42.972Z,39
2017-12-26T08:54:43.635Z,39
2017-12-26T08:55:44.299Z,39
2017-12-26T08:56:44.967Z,39
2017-12-26T08:57:45.624Z,39
2017-12-26T08:58:46.287Z,39
2017-12-26T08:59:46.951Z,45
2017-12-26T09:00:47.614Z,45
2017-12-26T09:01:48.276Z,45
2017-12-26T09:02:48.942Z,45
2017-12-26T09:03:49.605Z,45
2017-12-26T09:04:50.269Z,45
2017-12-26T09:05:50.931Z,45
2017-12-26T09:06:51.593Z,45
2017-12-26T09:07:52.259Z,45
2017-12-26T09:08:52.954Z,45
2017-12-26T09:09:53.618Z,45
2017-12-26T09:10:54.283Z,45
2017-12-26T09:11:54.946Z,45
2017-12-26T09:12:55.609Z,45
2017-12-26T09:13:56.271Z,45
2017-12-26T09:14:56.970Z,45
2017-12-26T09:15:57.633Z,45
2017-12-26T09:16:58.302Z,50
2017-12-26T09:17:58.966Z,45
2017-12-26T09:18:59.622Z,50
2017-12-26T09:20:00.288Z,50
2017-12-26T09:21:00.952Z,50
2017-12-26T09:22:01.616Z,50
2017-12-26T09:23:02.316Z,50
2017-12-26T09:24:02.979Z,50
2017-12-26T09:25:03.643Z,50
2017-12-26T09:26:04.308Z,50
2017-12-26T09:27:04.971Z,50
2017-12-26T09:28:05.635Z,50
2017-12-26T09:29:06.297Z,50
2017-12-26T09:30:06.962Z,50
2017-12-26T09:31:07.624Z,50
2017-12-26T09:32:08.289Z,50
2017-12-26T09:33:08.955Z,56
2017-12-26T09:34:09.618Z,56
2017-12-26T09:35:10.288Z,56
2017-12-26T09:36:10.948Z,56
2017-12-26T09:37:11.614Z,56
2017-12-26T09:38:12.278Z,56
2017-12-26T09:39:12.940Z,56
2017-12-26T09:40:13.603Z,61
2017-12-26T09:41:14.266Z,61
2017-12-26T09:42:14.929Z,67
2017-12-26T09:43:15.593Z,67
2017-12-26T09:44:16.259Z,78
2017-12-26T09:45:16.925Z,78
2017-12-26T09:46:17.616Z,73
2017-12-26T09:47:18.253Z,73
2017-12-26T09:48:18.917Z,78
2017-12-26T09:49:19.616Z,61
2017-12-26T09:50:20.281Z,78
2017-12-26T09:51:20.946Z,84
2017-12-26T09:52:21.610Z,84
2017-12-26T09:53:22.276Z,73
2017-12-26T09:54:22.939Z,84
2017-12-26T09:55:23.603Z,73
2017-12-26T09:56:24.268Z,73
2017-12-26T09:57:24.968Z,78
2017-12-26T09:58:25.630Z,73
2017-12-26T09:59:26.294Z,73
2017-12-26T10:00:26.960Z,61
2017-12-26T10:01:27.626Z,61
2017-12-26T10:02:28.293Z,61
2017-12-26T10:03:28.996Z,61
2017-12-26T10:04:29.660Z,61
2017-12-26T10:05:30.325Z,61
2017-12-26T10:06:30.992Z,61
2017-12-26T10:07:31.669Z,61
2017-12-26T10:08:32.324Z,67
2017-12-26T10:09:32.988Z,67
2017-12-26T10:10:33.651Z,90
2017-12-26T10:11:34.318Z,106
2017-12-26T10:12:34.985Z,112
2017-12-26T10:13:35.653Z,84
2017-12-26T10:14:36.317Z,84
2017-12-26T10:15:36.984Z,112
2017-12-26T10:16:37.650Z,118
2017-12-26T10:17:38.318Z,118
2017-12-26T10:18:38.983Z,118
2017-12-26T10:19:39.650Z,112
2017-12-26T10:20:40.316Z,112
2017-12-26T10:21:40.984Z,112
2017-12-26T10:22:41.653Z,118
2017-12-26T10:23:42.319Z,106
2017-12-26T10:24:42.988Z,101
2017-12-26T10:25:43.688Z,90
2017-12-26T10:26:44.360Z,84
2017-12-26T10:27:45.028Z,95
2017-12-26T10:28:45.695Z,78
2017-12-26T10:29:46.363Z,84
2017-12-26T10:30:47.032Z,84
2017-12-26T10:31:47.702Z,78
2017-12-26T10:32:48.368Z,78
2017-12-26T10:33:49.037Z,101
2017-12-26T10:34:49.706Z,95
2017-12-26T10:35:50.374Z,101
2017-12-26T10:36:51.043Z,106
2017-12-26T10:37:51.718Z,101
2017-12-26T10:38:52.383Z,101
2017-12-26T10:39:53.052Z,112
2017-12-26T10:40:53.724Z,135
2017-12-26T10:41:54.427Z,140
2017-12-26T10:42:55.096Z,151
2017-12-26T10:43:55.764Z,129
2017-12-26T10:44:56.435Z,112
2017-12-26T10:45:57.103Z,118
2017-12-26T10:46:57.773Z,112
2017-12-26T10:47:58.444Z,101
2017-12-26T10:48:59.113Z,101
2017-12-26T10:49:59.802Z,112
2017-12-26T10:51:00.456Z,112
2017-12-26T10:52:01.162Z,90
2017-12-26T10:53:01.830Z,84
2017-12-26T10:54:02.534Z,73
2017-12-26T10:55:03.168Z,67
2017-12-26T10:56:03.836Z,73
2017-12-26T10:57:04.506Z,84
2017-12-26T10:58:05.176Z,84
2017-12-26T10:59:05.844Z,90
2017-12-26T11:00:06.549Z,95
2017-12-26T11:01:07.218Z,95
2017-12-26T11:02:07.888Z,95
2017-12-26T11:03:08.558Z,112
2017-12-26T11:04:09.226Z,123
2017-12-26T11:05:09.895Z,123
2017-12-26T11:06:10.566Z,123
2017-12-26T11:07:11.236Z,129
2017-12-26T11:08:11.907Z,135
2017-12-26T11:09:12.581Z,140
2017-12-26T11:10:13.246Z,135
2017-12-26T11:11:13.916Z,135
2017-12-26T11:12:14.584Z,106
2017-12-26T11:13:15.255Z,106
2017-12-26T11:14:15.928Z,112
2017-12-26T11:15:16.598Z,112
2017-12-26T11:16:17.263Z,106
2017-12-26T11:17:17.932Z,101
2017-12-26T11:18:18.604Z,101
2017-12-26T11:19:19.273Z,95
2017-12-26T11:20:19.941Z,84
2017-12-26T11:21:20.609Z,78
2017-12-26T11:22:21.279Z,73
2017-12-26T11:23:21.947Z,61
2017-12-26T11:24:22.615Z,50
2017-12-26T11:25:23.285Z,50
2017-12-26T11:26:23.956Z,56
2017-12-26T11:27:24.631Z,78
2017-12-26T11:28:25.329Z,95
2017-12-26T11:29:25.998Z,61
2017-12-26T11:30:26.668Z,73
2017-12-26T11:31:27.336Z,73
2017-12-26T11:32:28.005Z,73
2017-12-26T11:33:28.675Z,95
2017-12-26T11:34:29.343Z,90
2017-12-26T11:35:30.010Z,84
2017-12-26T11:36:30.714Z,84
2017-12-26T11:37:31.382Z,84
2017-12-26T11:38:32.051Z,84
2017-12-26T11:39:32.719Z,78
2017-12-26T11:40:33.398Z,84
2017-12-26T11:41:34.057Z,90
2017-12-26T11:42:34.762Z,90
2017-12-26T11:43:35.432Z,101
2017-12-26T11:44:36.100Z,112
2017-12-26T11:45:36.770Z,101
2017-12-26T11:46:37.438Z,95
2017-12-26T11:47:38.105Z,90
2017-12-26T11:48:38.774Z,90
2017-12-26T11:49:39.441Z,78
2017-12-26T11:50:40.110Z,84
2017-12-26T11:51:40.775Z,84
2017-12-26T11:52:41.442Z,78
2017-12-26T11:53:42.108Z,73
2017-12-26T11:54:42.776Z,67
2017-12-26T11:55:43.441Z,56
2017-12-26T11:56:44.107Z,56
2017-12-26T11:57:44.778Z,61
2017-12-26T11:58:45.444Z,90
2017-12-26T11:59:46.110Z,56
2017-12-26T12:00:46.779Z,56
2017-12-26T12:01:47.480Z,67
2017-12-26T12:02:48.147Z,61
2017-12-26T12:03:48.815Z,67
2017-12-26T12:04:49.480Z,67
2017-12-26T12:05:50.146Z,67
2017-12-26T12:06:50.813Z,73
2017-12-26T12:07:51.480Z,73
2017-12-26T12:08:52.187Z,73
2017-12-26T12:09:52.892Z,78
2017-12-26T12:10:53.557Z,78
2017-12-26T12:11:54.221Z,78
2017-12-26T12:12:54.889Z,73
2017-12-26T12:13:55.593Z,73
2017-12-26T12:14:56.261Z,73
2017-12-26T12:15:56.926Z,78
2017-12-26T12:16:57.620Z,78
2017-12-26T12:17:58.294Z,78
2017-12-26T12:18:58.971Z,78
2017-12-26T12:19:59.628Z,73
2017-12-26T12:21:00.294Z,73
2017-12-26T12:22:00.963Z,73
2017-12-26T12:23:01.666Z,78
2017-12-26T12:24:02.332Z,78
2017-12-26T12:25:02.997Z,78
2017-12-26T12:26:03.698Z,73
2017-12-26T12:27:04.365Z,78
2017-12-26T12:28:05.031Z,73
2017-12-26T12:29:05.698Z,73
2017-12-26T12:30:06.364Z,73
2017-12-26T12:31:07.030Z,78
2017-12-26T12:32:07.697Z,78
2017-12-26T12:33:08.366Z,84
2017-12-26T12:34:09.032Z,84
2017-12-26T12:35:09.697Z,84
2017-12-26T12:36:10.364Z,73
2017-12-26T12:37:11.037Z,73
2017-12-26T12:38:11.698Z,78
2017-12-26T12:39:12.363Z,73
2017-12-26T12:40:13.030Z,67
2017-12-26T12:41:13.697Z,61
2017-12-26T12:42:14.366Z,61
2017-12-26T12:43:15.032Z,67
2017-12-26T12:44:15.699Z,78
2017-12-26T12:45:16.365Z,78
2017-12-26T12:46:17.033Z,73
2017-12-26T12:47:17.699Z,73
2017-12-26T12:48:18.366Z,73
2017-12-26T12:49:19.031Z,78
2017-12-26T12:50:19.700Z,78
2017-12-26T12:51:20.366Z,73
2017-12-26T12:52:21.032Z,73
2017-12-26T12:53:21.699Z,67
2017-12-26T12:54:22.366Z,61
2017-12-26T12:55:23.032Z,50
2017-12-26T12:56:23.698Z,50
2017-12-26T12:57:24.368Z,45
2017-12-26T12:58:25.065Z,50
2017-12-26T12:59:25.731Z,50
2017-12-26T13:00:26.399Z,45
2017-12-26T13:01:27.067Z,45
2017-12-26T13:02:27.733Z,45
2017-12-26T13:03:28.399Z,45
2017-12-26T13:04:29.066Z,28
2017-12-26T13:05:29.731Z,33
2017-12-26T13:06:30.397Z,33
2017-12-26T13:07:31.062Z,22
2017-12-26T13:08:31.727Z,16
2017-12-26T13:09:32.395Z,22
2017-12-26T13:10:33.060Z,22
2017-12-26T13:11:33.727Z,16
2017-12-26T13:12:34.391Z,16
2017-12-26T13:13:35.056Z,28
2017-12-26T13:14:35.721Z,33
2017-12-26T13:15:36.387Z,28
2017-12-26T13:16:37.053Z,22
2017-12-26T13:17:37.721Z,22
2017-12-26T13:18:38.385Z,22
2017-12-26T13:19:39.048Z,16
2017-12-26T13:20:39.714Z,16
2017-12-26T13:21:40.380Z,16
2017-12-26T13:22:41.046Z,16
2017-12-26T13:23:41.710Z,16
2017-12-26T13:24:42.376Z,16
2017-12-26T13:25:43.040Z,16
2017-12-26T13:26:43.707Z,22
2017-12-26T13:27:44.376Z,16
2017-12-26T13:28:45.040Z,22
2017-12-26T13:29:45.704Z,28
2017-12-26T13:30:46.405Z,28
2017-12-26T13:31:47.069Z,28
2017-12-26T13:32:47.735Z,28
2017-12-26T13:33:48.400Z,28
2017-12-26T13:34:49.067Z,22
2017-12-26T13:35:49.729Z,22
2017-12-26T13:36:50.392Z,22
2017-12-26T13:37:51.054Z,16
2017-12-26T13:38:51.717Z,22
2017-12-26T13:39:52.381Z,16
2017-12-26T13:40:53.045Z,22
2017-12-26T13:41:53.708Z,22
2017-12-26T13:42:54.372Z,28
2017-12-26T13:43:55.035Z,33
2017-12-26T13:44:55.698Z,28
2017-12-26T13:45:56.360Z,28
2017-12-26T13:46:57.025Z,22
2017-12-26T13:47:57.722Z,22
2017-12-26T13:48:58.423Z,22
2017-12-26T13:49:59.124Z,22
2017-12-26T13:50:59.819Z,28
2017-12-26T13:52:00.485Z,33
2017-12-26T13:53:01.152Z,45
2017-12-26T13:54:01.817Z,45
2017-12-26T13:55:02.496Z,45
2017-12-26T13:56:03.146Z,45
2017-12-26T13:57:03.810Z,45
2017-12-26T13:58:04.475Z,39
2017-12-26T13:59:05.144Z,39
2017-12-26T14:00:05.803Z,45
2017-12-26T14:01:06.508Z,45
2017-12-26T14:02:07.169Z,33
2017-12-26T14:03:07.831Z,28
2017-12-26T14:04:08.494Z,28
2017-12-26T14:05:09.156Z,28
2017-12-26T14:06:09.818Z,28
2017-12-26T14:07:10.482Z,33
2017-12-26T14:08:11.146Z,33
2017-12-26T14:09:11.810Z,33
2017-12-26T14:10:12.474Z,33
2017-12-26T14:11:13.139Z,28
2017-12-26T14:12:13.802Z,28
2017-12-26T14:13:14.513Z,28
2017-12-26T14:14:15.176Z,22
2017-12-26T14:15:15.839Z,22
2017-12-26T14:16:16.500Z,16
2017-12-26T14:17:17.162Z,16
2017-12-26T14:18:17.824Z,22
2017-12-26T14:19:18.486Z,22
2017-12-26T14:20:19.148Z,22
2017-12-26T14:21:19.809Z,22
2017-12-26T14:22:20.472Z,16
2017-12-26T14:23:21.135Z,16
2017-12-26T14:24:21.799Z,16
2017-12-26T14:25:22.463Z,16
2017-12-26T14:26:23.126Z,16
2017-12-26T14:27:23.788Z,11
2017-12-26T14:28:24.449Z,11
2017-12-26T14:29:25.112Z,11
2017-12-26T14:30:25.773Z,5
2017-12-26T14:31:26.435Z,5
2017-12-26T14:32:27.097Z,5
2017-12-26T14:33:27.759Z,5
2017-12-26T14:34:28.457Z,5
2017-12-26T14:35:29.153Z,5
2017-12-26T14:36:29.850Z,5
2017-12-26T14:37:30.515Z,5
2017-12-26T14:38:31.173Z,5
2017-12-26T14:39:31.835Z,5
2017-12-26T14:40:32.494Z,5